Terminal Aerodrome Forecast
Issued by NWS

Home | Current Version | Previous Version | Graphics & Text | Print | Product List | Glossary On
Versions: 1 2 3 4 5 6 7 8 9 10 11 12 13 14 15 16 17 18 19 20 21 22 23 24 25
000
FTUS43 KBIS 290354 AAB
TAFMOT
TAF AMD
KMOT 290354Z 2904/2924 31015G25KT P6SM BKN050 BKN070
     FM290900 30018KT P6SM BKN025 BKN050
     FM291300 30019G29KT P6SM SCT025 BKN035
     FM291600 30020G30KT P6SM VCSH BKN050=

USA.gov is the U.S. government's official web portal to all federal, state and local government web resources and services.